createdAt,value
2022-10-18T00:02:10.726Z,11.20
2022-10-18T00:04:39.203Z,11.40
2022-10-18T00:07:07.718Z,12.45
2022-10-18T00:09:36.322Z,13.73
2022-10-18T00:12:06.194Z,10.50
2022-10-18T00:14:34.564Z,12.52
2022-10-18T00:17:02.914Z,12.77
2022-10-18T00:19:31.434Z,9.52
2022-10-18T00:21:59.741Z,11.07
2022-10-18T00:24:28.176Z,10.10
2022-10-18T00:26:56.514Z,8.35
2022-10-18T00:29:26.238Z,11.20
2022-10-18T00:31:54.647Z,9.07
2022-10-18T00:34:22.961Z,9.55
2022-10-18T00:36:51.554Z,9.35
2022-10-18T00:39:21.729Z,12.93
2022-10-18T00:41:50.991Z,11.63
2022-10-18T00:44:56.621Z,11.35
2022-10-18T00:47:26.348Z,10.10
2022-10-18T00:49:58.032Z,13.05
2022-10-18T00:52:31.668Z,11.43
2022-10-18T00:55:00.632Z,13.32
2022-10-18T00:57:29.272Z,10.65
2022-10-18T00:59:57.906Z,13.80
2022-10-18T01:02:28.255Z,11.52
2022-10-18T01:04:56.907Z,10.30
2022-10-18T01:07:39.004Z,9.48
2022-10-18T01:10:18.838Z,10.50
2022-10-18T01:12:56.873Z,9.85
2022-10-18T01:15:29.225Z,11.02
2022-10-18T01:18:07.832Z,8.75
2022-10-18T01:20:57.200Z,11.82
2022-10-18T01:23:40.574Z,9.75
2022-10-18T01:26:24.664Z,13.52
2022-10-18T01:29:05.792Z,10.63
2022-10-18T01:31:40.803Z,11.95
2022-10-18T01:34:11.210Z,10.75
2022-10-18T01:36:43.775Z,12.48
2022-10-18T01:39:16.525Z,13.20
2022-10-18T01:41:46.503Z,10.38
2022-10-18T01:44:22.329Z,12.45
2022-10-18T01:46:55.181Z,10.45
2022-10-18T01:49:24.960Z,11.05
2022-10-18T01:51:53.429Z,11.25
2022-10-18T01:54:27.028Z,11.07
2022-10-18T01:57:01.121Z,13.27
2022-10-18T01:59:46.575Z,11.20
2022-10-18T02:02:25.886Z,10.82
2022-10-18T02:05:00.910Z,10.77
2022-10-18T02:07:35.422Z,11.25
2022-10-18T02:10:10.037Z,12.53
2022-10-18T02:12:42.647Z,15.02
2022-10-18T02:15:15.330Z,15.23
2022-10-18T02:17:46.490Z,13.10
2022-10-18T02:20:17.206Z,13.15
2022-10-18T02:22:46.576Z,11.75
2022-10-18T02:25:18.914Z,11.95
2022-10-18T02:27:47.505Z,11.52
2022-10-18T02:30:16.769Z,11.48
2022-10-18T02:32:54.815Z,10.07
2022-10-18T02:35:27.689Z,9.98
2022-10-18T02:37:59.450Z,8.90
2022-10-18T02:40:28.081Z,8.98
2022-10-18T02:42:58.450Z,8.75
2022-10-18T02:45:28.047Z,8.63
2022-10-18T02:47:57.850Z,8.32
2022-10-18T02:50:26.324Z,11.02
2022-10-18T02:52:54.628Z,10.43
2022-10-18T02:55:23.048Z,11.13
2022-10-18T02:57:51.459Z,10.68
2022-10-18T03:00:19.965Z,9.90
2022-10-18T03:02:50.506Z,9.45
2022-10-18T03:05:20.457Z,9.88
2022-10-18T03:07:48.830Z,9.57
2022-10-18T03:10:17.284Z,11.20
2022-10-18T03:12:46.022Z,11.70
2022-10-18T03:15:14.653Z,11.93
2022-10-18T03:17:43.089Z,11.50
2022-10-18T03:20:12.416Z,8.45
2022-10-18T03:22:42.351Z,8.90
2022-10-18T03:25:10.701Z,10.48
2022-10-18T03:27:39.056Z,8.48
2022-10-18T03:30:08.555Z,8.90
2022-10-18T03:32:36.876Z,9.43
2022-10-18T03:35:05.754Z,10.00
2022-10-18T03:37:34.191Z,10.95
2022-10-18T03:40:04.369Z,9.25
2022-10-18T03:42:32.925Z,8.02
2022-10-18T03:45:01.593Z,8.95
2022-10-18T03:47:29.917Z,8.80
2022-10-18T03:49:58.423Z,9.15
2022-10-18T03:52:26.871Z,9.00
2022-10-18T03:54:55.265Z,9.38
2022-10-18T03:57:25.108Z,11.60
2022-10-18T03:59:53.637Z,9.73
2022-10-18T04:02:22.125Z,9.68
2022-10-18T04:04:50.497Z,11.18
2022-10-18T04:07:18.921Z,8.45
2022-10-18T04:09:47.291Z,9.43
2022-10-18T04:12:15.673Z,10.57
2022-10-18T04:14:45.629Z,10.25
2022-10-18T04:17:14.079Z,9.23
2022-10-18T04:19:42.415Z,9.38
2022-10-18T04:22:12.483Z,9.73
2022-10-18T04:24:40.804Z,9.57
2022-10-18T04:27:09.447Z,9.55
2022-10-18T04:29:37.805Z,9.68
2022-10-18T04:32:07.828Z,9.27
2022-10-18T04:34:36.357Z,10.98
2022-10-18T04:37:04.752Z,8.23
2022-10-18T04:39:33.101Z,8.05
2022-10-18T04:42:01.556Z,7.70
2022-10-18T04:44:29.934Z,9.98
2022-10-18T04:46:58.446Z,7.25
2022-10-18T04:49:28.201Z,8.98
2022-10-18T04:51:56.590Z,7.55
2022-10-18T04:54:26.572Z,7.95
2022-10-18T04:56:57.185Z,7.88
2022-10-18T04:59:25.753Z,6.40
2022-10-18T05:01:54.231Z,5.20
2022-10-18T05:04:22.724Z,8.55
2022-10-18T05:06:52.472Z,9.50
2022-10-18T05:09:24.422Z,7.78
2022-10-18T05:11:53.015Z,9.60
2022-10-18T05:14:21.454Z,10.70
2022-10-18T05:16:50.357Z,10.40
2022-10-18T05:19:18.742Z,9.75
2022-10-18T05:21:47.276Z,10.13
2022-10-18T05:24:17.052Z,11.52
2022-10-18T05:26:45.518Z,11.98
2022-10-18T05:29:14.107Z,17.90
2022-10-18T05:31:42.631Z,18.90
2022-10-18T05:34:10.971Z,20.38
2022-10-18T05:36:39.360Z,25.00
2022-10-18T05:39:07.757Z,21.10
2022-10-18T05:41:37.645Z,25.23
2022-10-18T05:44:07.293Z,25.33
2022-10-18T05:46:36.398Z,31.05
2022-10-18T05:49:04.891Z,29.92
2022-10-18T05:51:33.489Z,33.17
2022-10-18T05:54:01.815Z,32.00
2022-10-18T05:56:30.424Z,31.48
2022-10-18T05:59:00.161Z,35.58
2022-10-18T06:01:28.594Z,35.95
2022-10-18T06:03:56.982Z,36.97
2022-10-18T06:06:25.402Z,33.60
2022-10-18T06:08:53.765Z,36.05
2022-10-18T06:11:22.922Z,35.28
2022-10-18T06:13:52.889Z,39.67
2022-10-18T06:16:25.435Z,43.92
2022-10-18T06:18:57.689Z,36.07
2022-10-18T06:21:26.581Z,47.40
2022-10-18T06:23:56.492Z,45.25
2022-10-18T06:26:25.997Z,51.72
2022-10-18T06:28:54.438Z,53.58
2022-10-18T06:31:24.256Z,52.33
2022-10-18T06:33:52.659Z,58.28
2022-10-18T06:36:22.985Z,53.95
2022-10-18T06:38:52.532Z,62.92
2022-10-18T06:41:21.955Z,53.00
2022-10-18T06:43:50.553Z,55.95
2022-10-18T06:46:19.065Z,60.22
2022-10-18T06:48:49.066Z,59.55
2022-10-18T06:51:18.307Z,51.75
2022-10-18T06:53:59.246Z,66.32
2022-10-18T06:56:35.870Z,60.13
2022-10-18T06:59:04.789Z,59.70
2022-10-18T07:01:33.212Z,65.28
2022-10-18T07:04:03.051Z,59.22
2022-10-18T07:06:31.445Z,58.90
2022-10-18T07:09:00.249Z,62.28
2022-10-18T07:11:28.730Z,61.10
2022-10-18T07:14:05.093Z,62.70
2022-10-18T07:16:34.631Z,64.85
2022-10-18T07:19:04.721Z,60.05
2022-10-18T07:21:33.085Z,59.15
2022-10-18T07:24:01.851Z,61.60
2022-10-18T07:26:32.973Z,54.90
2022-10-18T07:29:03.105Z,60.88
2022-10-18T07:31:31.806Z,64.32
2022-10-18T07:34:00.755Z,60.42
2022-10-18T07:36:31.261Z,50.83
2022-10-18T07:38:59.732Z,52.60
2022-10-18T07:41:28.957Z,56.10
2022-10-18T07:43:57.477Z,58.67
2022-10-18T07:46:26.126Z,55.97
2022-10-18T07:48:54.682Z,51.83
2022-10-18T07:51:23.620Z,56.92
2022-10-18T07:53:53.396Z,55.38
2022-10-18T07:56:22.340Z,46.60
2022-10-18T07:58:52.429Z,46.00
2022-10-18T08:01:22.820Z,50.13
2022-10-18T08:03:52.052Z,44.95
2022-10-18T08:06:22.527Z,43.17
2022-10-18T08:08:51.180Z,45.20
2022-10-18T08:11:22.561Z,45.78
2022-10-18T08:13:51.527Z,44.90
2022-10-18T08:16:21.743Z,41.78
2022-10-18T08:18:50.655Z,42.17
2022-10-18T08:21:20.754Z,42.78
2022-10-18T08:23:49.505Z,42.67
2022-10-18T08:26:19.857Z,44.05
2022-10-18T08:29:03.595Z,40.15
2022-10-18T08:31:38.618Z,39.65
2022-10-18T08:34:07.058Z,39.03
2022-10-18T08:36:37.259Z,40.90
2022-10-18T08:39:05.624Z,42.35
2022-10-18T08:41:55.834Z,41.45
2022-10-18T08:44:29.353Z,41.92
2022-10-18T08:47:04.150Z,39.83
2022-10-18T08:49:40.826Z,37.53
2022-10-18T08:52:19.172Z,35.17
2022-10-18T08:54:56.651Z,39.65
2022-10-18T08:57:25.210Z,41.95
2022-10-18T08:59:55.098Z,36.92
2022-10-18T09:02:51.865Z,39.55
2022-10-18T09:05:25.900Z,39.00
2022-10-18T09:08:15.248Z,40.58
2022-10-18T09:10:52.751Z,40.10
2022-10-18T09:13:56.568Z,40.50
2022-10-18T09:16:32.969Z,41.22
2022-10-18T09:19:11.519Z,39.80
2022-10-18T09:21:49.645Z,39.92
2022-10-18T09:24:27.063Z,38.45
2022-10-18T09:27:04.988Z,37.60
2022-10-18T09:29:50.207Z,37.95
2022-10-18T09:32:33.344Z,37.45
2022-10-18T09:35:06.898Z,34.55
2022-10-18T09:37:36.135Z,36.10
2022-10-18T09:40:18.060Z,35.80
2022-10-18T09:42:56.371Z,33.30
2022-10-18T09:45:28.950Z,29.67
2022-10-18T09:48:08.453Z,34.97
2022-10-18T09:50:41.466Z,35.22
2022-10-18T09:53:18.909Z,36.03
2022-10-18T09:55:59.997Z,31.67
2022-10-18T09:58:36.535Z,36.78
2022-10-18T10:01:05.057Z,33.60
2022-10-18T10:03:35.240Z,32.20
2022-10-18T10:06:16.813Z,34.42
2022-10-18T10:08:48.978Z,29.88
2022-10-18T10:11:33.333Z,27.45
2022-10-18T10:16:51.525Z,32.40
2022-10-18T10:19:25.292Z,28.73
2022-10-18T10:21:58.697Z,27.92
2022-10-18T10:24:35.011Z,29.13
2022-10-18T10:27:06.827Z,30.83
2022-10-18T10:29:53.917Z,33.22
2022-10-18T10:32:23.698Z,28.25
2022-10-18T10:34:54.221Z,28.40
2022-10-18T10:37:32.565Z,26.70
2022-10-18T10:40:27.656Z,25.55
2022-10-18T10:43:12.984Z,27.60
2022-10-18T10:45:59.315Z,24.88
2022-10-18T10:51:07.297Z,26.67
2022-10-18T10:53:45.391Z,23.83
2022-10-18T10:56:27.255Z,22.75
2022-10-18T10:58:59.496Z,21.73
2022-10-18T11:01:33.030Z,19.27
2022-10-18T11:04:04.584Z,21.10
2022-10-18T11:06:40.185Z,19.60
2022-10-18T11:09:20.316Z,20.10
2022-10-18T11:11:59.612Z,19.40
2022-10-18T11:14:30.701Z,22.70
2022-10-18T11:17:08.142Z,24.15
2022-10-18T11:19:43.729Z,18.60
2022-10-18T11:22:19.494Z,19.08
2022-10-18T11:24:48.219Z,17.48
2022-10-18T11:27:24.641Z,22.73
2022-10-18T11:30:04.500Z,19.30
2022-10-18T11:32:42.955Z,20.35
2022-10-18T11:35:31.393Z,21.20
2022-10-18T11:38:13.391Z,24.40
2022-10-18T11:41:16.490Z,20.30
2022-10-18T11:44:04.181Z,23.10
2022-10-18T11:46:53.078Z,22.17
2022-10-18T11:50:00.148Z,21.05
2022-10-18T11:52:38.155Z,23.00
2022-10-18T11:55:17.886Z,22.30
2022-10-18T11:57:56.667Z,19.58
2022-10-18T12:00:39.299Z,17.92
2022-10-18T12:03:27.716Z,20.15
2022-10-18T12:05:59.495Z,20.00
2022-10-18T12:08:33.800Z,13.32
2022-10-18T12:11:10.309Z,15.38
2022-10-18T12:13:45.240Z,15.15
2022-10-18T12:16:14.109Z,17.75
2022-10-18T12:21:27.930Z,15.55
2022-10-18T12:24:00.359Z,14.43
2022-10-18T12:26:32.301Z,15.15
2022-10-18T12:29:09.534Z,14.52
2022-10-18T12:31:44.463Z,12.50
2022-10-18T12:34:35.974Z,13.80
2022-10-18T12:37:24.704Z,12.32
2022-10-18T12:40:10.261Z,12.20
2022-10-18T12:42:50.513Z,13.02
2022-10-18T12:45:32.247Z,11.88
2022-10-18T12:48:01.944Z,14.43
2022-10-18T12:50:34.730Z,13.15
2022-10-18T12:53:06.996Z,11.75
2022-10-18T12:55:37.830Z,13.23
2022-10-18T12:58:27.524Z,14.65
2022-10-18T13:01:02.249Z,16.83
2022-10-18T13:03:58.973Z,12.27
2022-10-18T13:07:05.799Z,12.52
2022-10-18T13:09:37.078Z,14.82
2022-10-18T13:12:46.504Z,15.75
2022-10-18T13:15:39.552Z,14.50
2022-10-18T13:18:19.436Z,15.15
2022-10-18T13:20:58.438Z,13.48
2022-10-18T13:23:40.222Z,17.25
2022-10-18T13:26:20.260Z,16.77
2022-10-18T13:28:59.955Z,17.00
2022-10-18T13:31:36.722Z,15.52
2022-10-18T13:34:28.005Z,18.00
2022-10-18T13:37:01.429Z,12.57
2022-10-18T13:39:31.260Z,15.82
2022-10-18T13:42:32.909Z,15.68
2022-10-18T13:45:41.117Z,13.35
2022-10-18T13:48:50.031Z,13.93
2022-10-18T13:51:50.382Z,14.02
2022-10-18T13:54:44.954Z,12.48
2022-10-18T13:57:36.850Z,13.55
2022-10-18T14:00:20.633Z,11.93
2022-10-18T14:03:26.679Z,9.95
2022-10-18T14:06:07.378Z,13.07
2022-10-18T14:08:39.518Z,15.30
2022-10-18T14:11:26.725Z,13.88
2022-10-18T14:14:05.084Z,13.63
2022-10-18T14:16:39.684Z,16.40
2022-10-18T14:19:17.621Z,13.68
2022-10-18T14:21:54.823Z,13.90
2022-10-18T14:24:26.872Z,15.27
2022-10-18T14:27:17.247Z,17.52
2022-10-18T14:29:47.979Z,15.75
2022-10-18T14:32:26.453Z,13.63
2022-10-18T14:35:09.241Z,17.27
2022-10-18T14:37:44.345Z,16.67
2022-10-18T14:40:31.274Z,16.65
2022-10-18T14:43:03.619Z,17.83
2022-10-18T14:45:33.366Z,18.15
2022-10-18T14:48:13.970Z,17.98
2022-10-18T14:50:43.533Z,15.10
2022-10-18T14:53:17.532Z,17.17
2022-10-18T14:55:55.207Z,18.80
2022-10-18T14:58:24.328Z,17.38
2022-10-18T15:00:55.327Z,23.35
2022-10-18T15:03:24.211Z,18.20
2022-10-18T15:05:54.749Z,21.23
2022-10-18T15:08:24.378Z,16.42
2022-10-18T15:10:53.337Z,19.67
2022-10-18T15:13:23.265Z,21.05
2022-10-18T15:15:52.070Z,21.02
2022-10-18T15:18:24.107Z,19.83
2022-10-18T15:21:20.590Z,22.13
2022-10-18T15:23:49.811Z,19.48
2022-10-18T15:26:23.635Z,22.02
2022-10-18T15:28:56.587Z,22.17
2022-10-18T15:31:27.629Z,27.17
2022-10-18T15:34:19.495Z,21.00
2022-10-18T15:36:48.908Z,22.00
2022-10-18T15:39:20.653Z,22.48
2022-10-18T15:41:50.743Z,21.40
2022-10-18T15:44:26.096Z,22.33
2022-10-18T15:49:52.158Z,25.75
2022-10-18T15:52:39.450Z,26.30
2022-10-18T15:55:43.581Z,29.27
2022-10-18T15:58:16.983Z,24.00
2022-10-18T16:00:46.710Z,22.48
2022-10-18T16:03:15.885Z,25.73
2022-10-18T16:05:45.821Z,21.90
2022-10-18T16:08:22.914Z,25.00
2022-10-18T16:10:52.075Z,23.52
2022-10-18T16:13:20.646Z,21.83
2022-10-18T16:15:49.293Z,30.27
2022-10-18T16:18:20.521Z,23.00
2022-10-18T16:20:50.263Z,21.98
2022-10-18T16:23:20.879Z,23.40
2022-10-18T16:25:49.849Z,24.55
2022-10-18T16:28:21.097Z,25.55
2022-10-18T16:30:55.147Z,21.67
2022-10-18T16:33:29.385Z,26.30
2022-10-18T16:36:04.497Z,25.55
2022-10-18T16:38:35.483Z,19.35
2022-10-18T16:41:18.574Z,19.33
2022-10-18T16:43:48.490Z,25.35
2022-10-18T16:46:19.662Z,19.67
2022-10-18T16:48:49.248Z,20.30
2022-10-18T16:51:19.098Z,18.48
2022-10-18T16:53:47.922Z,22.17
2022-10-18T16:56:18.661Z,18.20
2022-10-18T16:58:47.307Z,17.38
2022-10-18T17:01:17.872Z,19.40
2022-10-18T17:03:46.723Z,18.50
2022-10-18T17:06:17.642Z,22.75
2022-10-18T17:08:47.526Z,25.63
2022-10-18T17:11:20.003Z,22.48
2022-10-18T17:13:48.649Z,25.05
2022-10-18T17:19:03.554Z,24.45
2022-10-18T17:21:33.391Z,25.23
2022-10-18T17:24:04.395Z,23.33
2022-10-18T17:26:33.409Z,25.33
2022-10-18T17:29:04.811Z,23.15
2022-10-18T17:31:35.426Z,28.75
2022-10-18T17:34:04.178Z,27.02
2022-10-18T17:36:34.335Z,26.35
2022-10-18T17:39:04.764Z,30.35
2022-10-18T17:41:33.189Z,22.95
2022-10-18T17:44:03.897Z,32.00
2022-10-18T17:46:32.849Z,22.50
2022-10-18T17:49:01.206Z,24.58
2022-10-18T17:51:29.623Z,27.95
2022-10-18T17:54:00.352Z,26.35
2022-10-18T17:56:33.303Z,25.98
2022-10-18T17:59:02.231Z,25.42
2022-10-18T18:01:30.613Z,28.33
2022-10-18T18:04:01.436Z,22.80
2022-10-18T18:06:33.411Z,28.13
2022-10-18T18:09:06.797Z,27.83
2022-10-18T18:11:37.297Z,26.77
2022-10-18T18:14:08.906Z,24.83
2022-10-18T18:16:39.040Z,22.83
2022-10-18T18:19:09.833Z,23.55
2022-10-18T18:21:39.306Z,22.55
2022-10-18T18:24:09.935Z,20.70
2022-10-18T18:26:40.795Z,27.33
2022-10-18T18:29:09.245Z,27.08
2022-10-18T18:31:40.279Z,27.13
2022-10-18T18:34:12.394Z,28.83
2022-10-18T18:36:41.388Z,25.58
2022-10-18T18:39:17.337Z,25.48
2022-10-18T18:41:48.762Z,28.95
2022-10-18T18:44:17.881Z,26.63
2022-10-18T18:46:46.381Z,28.48
2022-10-18T18:49:15.117Z,21.00
2022-10-18T18:51:43.647Z,26.85
2022-10-18T18:54:15.730Z,26.17
2022-10-18T18:56:44.351Z,22.40
2022-10-18T18:59:15.750Z,26.55
2022-10-18T19:01:44.830Z,21.35
2022-10-18T19:04:13.424Z,23.05
2022-10-18T19:06:44.385Z,22.70
2022-10-18T19:09:19.129Z,26.25
2022-10-18T19:11:57.421Z,23.23
2022-10-18T19:14:30.930Z,28.40
2022-10-18T19:17:01.065Z,25.15
2022-10-18T19:19:37.381Z,20.48
2022-10-18T19:22:08.318Z,23.25
2022-10-18T19:24:36.782Z,25.02
2022-10-18T19:27:09.575Z,21.35
2022-10-18T19:29:40.859Z,19.88
2022-10-18T19:32:12.002Z,23.70
2022-10-18T19:34:40.518Z,22.33
2022-10-18T19:37:09.901Z,22.27
2022-10-18T19:39:38.280Z,23.73
2022-10-18T19:42:09.327Z,24.50
2022-10-18T19:44:40.811Z,22.35
2022-10-18T19:47:14.031Z,24.52
2022-10-18T19:49:43.064Z,23.13
2022-10-18T19:52:12.270Z,22.30
2022-10-18T19:54:40.734Z,22.15
2022-10-18T19:57:09.471Z,23.27
2022-10-18T20:02:14.977Z,25.15
2022-10-18T20:04:43.485Z,19.65
2022-10-18T20:07:11.887Z,27.33
2022-10-18T20:09:40.616Z,25.55
2022-10-18T20:12:08.966Z,22.70
2022-10-18T20:14:38.705Z,24.35
2022-10-18T20:17:07.185Z,23.10
2022-10-18T20:19:35.573Z,28.02
2022-10-18T20:22:04.065Z,24.88
2022-10-18T20:24:32.406Z,23.67
2022-10-18T20:27:00.852Z,19.52
2022-10-18T20:29:30.118Z,21.02
2022-10-18T20:32:00.023Z,21.30
2022-10-18T20:34:29.070Z,23.20
2022-10-18T20:36:57.450Z,24.40
2022-10-18T20:39:28.941Z,26.15
2022-10-18T20:41:57.268Z,23.60
2022-10-18T20:44:26.862Z,22.13
2022-10-18T20:46:55.305Z,23.23
2022-10-18T20:49:25.333Z,27.67
2022-10-18T20:51:53.731Z,21.50
2022-10-18T20:54:22.677Z,21.75
2022-10-18T20:56:51.018Z,25.83
2022-10-18T20:59:19.424Z,24.48
2022-10-18T21:01:48.045Z,20.35
2022-10-18T21:04:16.451Z,16.73
2022-10-18T21:06:46.157Z,20.27
2022-10-18T21:09:17.129Z,22.63
2022-10-18T21:11:47.357Z,21.35
2022-10-18T21:14:18.586Z,21.65
2022-10-18T21:16:47.721Z,21.92
2022-10-18T21:19:17.963Z,21.85
2022-10-18T21:21:50.251Z,19.75
2022-10-18T21:24:19.528Z,22.70
2022-10-18T21:26:48.721Z,21.90
2022-10-18T21:29:21.941Z,22.77
2022-10-18T21:31:54.237Z,24.02
2022-10-18T21:34:22.904Z,22.65
2022-10-18T21:36:52.780Z,22.23
2022-10-18T21:41:56.149Z,23.85
2022-10-18T21:44:24.666Z,21.20
2022-10-18T21:46:53.057Z,20.48
2022-10-18T21:49:24.796Z,18.55
2022-10-18T21:51:54.567Z,22.98
2022-10-18T21:54:22.936Z,20.90
2022-10-18T21:56:51.785Z,21.35
2022-10-18T21:59:20.205Z,26.13
2022-10-18T22:01:48.855Z,17.77
2022-10-18T22:04:20.715Z,22.10
2022-10-18T22:06:49.442Z,18.25
2022-10-18T22:09:19.660Z,20.63
2022-10-18T22:11:50.810Z,18.48
2022-10-18T22:14:19.195Z,19.63
2022-10-18T22:16:47.592Z,17.60
2022-10-18T22:19:16.010Z,17.13
2022-10-18T22:21:44.446Z,21.25
2022-10-18T22:24:12.813Z,18.33
2022-10-18T22:26:44.364Z,20.42
2022-10-18T22:29:15.340Z,18.95
2022-10-18T22:31:46.603Z,15.85
2022-10-18T22:34:16.786Z,13.55
2022-10-18T22:36:45.271Z,15.68
2022-10-18T22:39:15.562Z,18.35
2022-10-18T22:41:46.509Z,25.90
2022-10-18T22:44:15.781Z,24.02
2022-10-18T22:46:44.208Z,21.20
2022-10-18T22:49:13.296Z,19.25
2022-10-18T22:51:42.105Z,17.88
2022-10-18T22:54:10.972Z,23.27
2022-10-18T22:56:39.598Z,19.48
2022-10-18T22:59:09.333Z,19.42
2022-10-18T23:01:39.017Z,20.35
2022-10-18T23:04:07.408Z,22.50
2022-10-18T23:06:37.205Z,21.52
2022-10-18T23:09:07.882Z,22.00
2022-10-18T23:11:37.738Z,15.75
2022-10-18T23:14:09.014Z,18.42
2022-10-18T23:16:37.556Z,20.58
2022-10-18T23:19:05.907Z,15.98
2022-10-18T23:21:34.921Z,16.27
2022-10-18T23:24:03.380Z,20.10
2022-10-18T23:26:31.812Z,18.50
2022-10-18T23:29:00.515Z,15.88
2022-10-18T23:31:32.570Z,16.38
2022-10-18T23:34:03.029Z,15.82
2022-10-18T23:36:32.446Z,17.80
2022-10-18T23:39:00.854Z,13.93
2022-10-18T23:41:29.431Z,16.98
2022-10-18T23:43:57.770Z,17.52
2022-10-18T23:46:26.411Z,13.77
2022-10-18T23:48:56.126Z,15.05
2022-10-18T23:51:24.660Z,16.10
2022-10-18T23:53:52.971Z,14.75
2022-10-18T23:56:21.450Z,20.52
2022-10-18T23:58:49.756Z,15.63
